createdAt,value
2022-11-29T00:01:26.142Z,13.85
2022-11-29T00:03:59.702Z,14.32
2022-11-29T00:09:45.158Z,13.65
2022-11-29T00:12:18.290Z,13.80
2022-11-29T00:14:51.249Z,14.15
2022-11-29T00:19:58.410Z,13.13
2022-11-29T00:25:04.780Z,13.48
2022-11-29T00:27:37.531Z,13.15
2022-11-29T00:30:11.594Z,13.65
2022-11-29T00:32:45.799Z,13.43
2022-11-29T00:35:18.909Z,14.00
2022-11-29T00:37:51.741Z,12.35
2022-11-29T00:40:24.913Z,13.48
2022-11-29T00:42:57.789Z,13.05
2022-11-29T00:48:05.277Z,13.20
2022-11-29T00:50:38.236Z,12.27
2022-11-29T00:55:45.144Z,13.07
2022-11-29T00:58:18.420Z,12.60
2022-11-29T01:00:51.978Z,12.05
2022-11-29T01:03:26.796Z,13.00
2022-11-29T01:06:02.685Z,12.68
2022-11-29T01:08:36.059Z,11.85
2022-11-29T01:11:13.746Z,11.95
2022-11-29T01:13:47.224Z,13.45
2022-11-29T01:16:20.425Z,11.90
2022-11-29T01:18:55.023Z,13.70
2022-11-29T01:21:28.489Z,13.30
2022-11-29T01:24:03.658Z,13.30
2022-11-29T01:26:39.428Z,14.15
2022-11-29T01:29:14.109Z,13.27
2022-11-29T01:31:47.059Z,13.80
2022-11-29T01:36:54.311Z,13.15
2022-11-29T01:39:27.285Z,13.48
2022-11-29T01:42:00.948Z,12.82
2022-11-29T01:45:03.825Z,13.27
2022-11-29T01:47:47.070Z,12.47
2022-11-29T01:52:54.602Z,13.20
2022-11-29T01:58:01.539Z,13.63
2022-11-29T02:00:34.667Z,13.30
2022-11-29T02:03:11.837Z,11.55
2022-11-29T02:05:50.358Z,12.95
2022-11-29T02:08:28.386Z,12.23
2022-11-29T02:11:20.142Z,12.13
2022-11-29T02:14:13.100Z,12.05
2022-11-29T02:16:56.857Z,11.32
2022-11-29T02:19:55.343Z,11.32
2022-11-29T02:22:43.986Z,10.90
2022-11-29T02:25:37.110Z,10.80
2022-11-29T02:28:42.975Z,11.10
2022-11-29T02:31:44.260Z,10.30
2022-11-29T02:34:44.613Z,11.10
2022-11-29T02:37:30.917Z,10.90
2022-11-29T02:40:33.616Z,10.35
2022-11-29T02:43:34.175Z,10.50
2022-11-29T02:46:22.182Z,10.18
2022-11-29T02:49:04.109Z,10.80
2022-11-29T02:51:44.164Z,10.70
2022-11-29T02:54:25.374Z,10.32
2022-11-29T02:57:03.385Z,10.32
2022-11-29T02:59:43.888Z,10.13
2022-11-29T03:02:24.467Z,10.02
2022-11-29T03:05:04.689Z,11.32
2022-11-29T03:07:45.856Z,10.23
2022-11-29T03:10:29.879Z,10.50
2022-11-29T03:13:08.169Z,10.48
2022-11-29T03:15:49.814Z,10.45
2022-11-29T03:18:35.518Z,9.93
2022-11-29T03:21:24.488Z,10.10
2022-11-29T03:24:06.196Z,10.82
2022-11-29T03:26:45.488Z,9.95
2022-11-29T03:29:28.366Z,9.90
2022-11-29T03:32:08.306Z,9.40
2022-11-29T03:34:57.411Z,9.52
2022-11-29T03:37:39.342Z,10.50
2022-11-29T03:40:20.716Z,10.07
2022-11-29T03:43:02.923Z,9.27
2022-11-29T03:45:44.816Z,9.82
2022-11-29T03:48:22.955Z,9.52
2022-11-29T03:51:00.728Z,10.30
2022-11-29T03:53:40.671Z,9.85
2022-11-29T03:56:37.817Z,9.23
2022-11-29T03:59:20.564Z,9.07
2022-11-29T04:02:14.155Z,9.23
2022-11-29T04:05:15.607Z,9.27
2022-11-29T04:08:03.012Z,9.63
2022-11-29T04:10:53.594Z,9.82
2022-11-29T04:13:47.684Z,9.85
2022-11-29T04:16:47.201Z,9.85
2022-11-29T04:19:40.839Z,9.77
2022-11-29T04:22:33.110Z,10.15
2022-11-29T04:25:32.828Z,10.23
2022-11-29T04:28:20.800Z,9.50
2022-11-29T04:31:08.403Z,10.27
2022-11-29T04:34:18.835Z,9.40
2022-11-29T04:37:11.777Z,9.50
2022-11-29T04:39:58.817Z,10.70
2022-11-29T04:42:56.577Z,10.60
2022-11-29T04:45:48.959Z,10.00
2022-11-29T04:48:43.938Z,10.40
2022-11-29T04:51:27.111Z,9.82
2022-11-29T04:56:44.977Z,10.77
2022-11-29T04:59:25.998Z,10.35
2022-11-29T05:02:06.638Z,10.70
2022-11-29T05:04:52.607Z,10.40
2022-11-29T05:07:34.121Z,10.48
2022-11-29T05:10:23.821Z,10.20
2022-11-29T05:13:03.813Z,10.18
2022-11-29T05:15:53.619Z,11.77
2022-11-29T05:18:37.452Z,10.35
2022-11-29T05:21:20.666Z,10.00
2022-11-29T05:24:00.956Z,9.75
2022-11-29T05:26:42.378Z,10.77
2022-11-29T05:29:22.728Z,8.68
2022-11-29T05:32:10.845Z,9.30
2022-11-29T05:35:00.860Z,9.13
2022-11-29T05:37:44.646Z,9.15
2022-11-29T05:40:39.885Z,9.68
2022-11-29T05:43:26.623Z,9.98
2022-11-29T05:46:07.147Z,9.13
2022-11-29T05:48:48.776Z,9.43
2022-11-29T05:51:28.622Z,9.68
2022-11-29T05:54:13.004Z,9.10
2022-11-29T05:56:58.008Z,9.23
2022-11-29T05:59:32.391Z,9.40
2022-11-29T06:02:15.583Z,9.40
2022-11-29T06:07:45.622Z,9.50
2022-11-29T06:10:24.252Z,9.80
2022-11-29T06:13:07.284Z,8.98
2022-11-29T06:16:16.877Z,8.85
2022-11-29T06:19:17.379Z,8.70
2022-11-29T06:22:00.733Z,8.63
2022-11-29T06:24:45.833Z,8.43
2022-11-29T06:27:37.246Z,8.85
2022-11-29T06:30:13.230Z,8.02
2022-11-29T06:32:53.475Z,8.00
2022-11-29T06:35:39.826Z,8.40
2022-11-29T06:38:23.199Z,8.90
2022-11-29T06:41:02.075Z,8.10
2022-11-29T06:43:37.534Z,8.65
2022-11-29T06:46:19.981Z,8.25
2022-11-29T06:49:02.340Z,5.88
2022-11-29T06:51:46.275Z,8.07
2022-11-29T06:54:32.050Z,7.63
2022-11-29T06:57:14.396Z,7.30
2022-11-29T07:00:02.513Z,8.48
2022-11-29T07:02:49.546Z,7.32
2022-11-29T07:05:26.792Z,8.00
2022-11-29T07:08:03.861Z,8.18
2022-11-29T07:10:40.901Z,7.80
2022-11-29T07:13:14.857Z,8.40
2022-11-29T07:16:00.632Z,8.00
2022-11-29T07:18:43.302Z,8.32
2022-11-29T07:21:26.711Z,6.60
2022-11-29T07:24:09.778Z,7.82
2022-11-29T07:26:56.492Z,8.00
2022-11-29T07:29:39.352Z,8.60
2022-11-29T07:32:21.983Z,8.63
2022-11-29T07:35:02.884Z,7.65
2022-11-29T07:37:41.043Z,7.75
2022-11-29T07:40:16.814Z,7.45
2022-11-29T07:43:02.385Z,7.70
2022-11-29T07:45:36.834Z,7.45
2022-11-29T07:48:12.262Z,7.85
2022-11-29T07:50:46.352Z,7.53
2022-11-29T07:53:21.690Z,9.32
2022-11-29T07:55:54.595Z,7.63
2022-11-29T08:00:59.929Z,7.80
2022-11-29T08:03:35.540Z,8.05
2022-11-29T08:06:08.227Z,7.90
2022-11-29T08:08:44.202Z,8.10
2022-11-29T08:11:17.403Z,7.15
2022-11-29T08:13:51.423Z,7.35
2022-11-29T08:16:24.568Z,7.40
2022-11-29T08:18:58.973Z,7.63
2022-11-29T08:21:31.776Z,7.65
2022-11-29T08:24:04.676Z,8.20
2022-11-29T08:26:37.524Z,13.93
2022-11-29T08:29:10.325Z,11.25
2022-11-29T08:31:43.113Z,12.23
2022-11-29T08:34:17.510Z,12.00
2022-11-29T08:36:50.861Z,13.00
2022-11-29T08:39:24.180Z,12.30
2022-11-29T08:41:56.895Z,12.70
2022-11-29T08:44:29.750Z,13.10
2022-11-29T08:50:03.323Z,12.23
2022-11-29T08:55:33.424Z,12.77
2022-11-29T08:58:09.841Z,13.00
2022-11-29T09:00:46.046Z,13.30
2022-11-29T09:03:36.800Z,13.90
2022-11-29T09:06:13.441Z,14.45
2022-11-29T09:08:46.955Z,13.82
2022-11-29T09:11:25.992Z,12.90
2022-11-29T09:14:01.248Z,13.55
2022-11-29T09:16:37.642Z,12.98
2022-11-29T09:19:11.615Z,14.70
2022-11-29T09:21:45.813Z,14.55
2022-11-29T09:24:19.654Z,13.45
2022-11-29T09:26:52.448Z,13.68
2022-11-29T09:29:25.161Z,14.55
2022-11-29T09:31:58.111Z,14.70
2022-11-29T09:37:06.170Z,15.00
2022-11-29T09:39:40.225Z,14.10
2022-11-29T09:42:44.866Z,13.40
2022-11-29T09:45:22.145Z,12.77
2022-11-29T09:48:23.028Z,14.35
2022-11-29T09:51:01.734Z,13.27
2022-11-29T09:53:46.248Z,13.18
2022-11-29T09:56:26.314Z,13.43
2022-11-29T09:59:04.722Z,13.15
2022-11-29T10:01:43.699Z,12.73
2022-11-29T10:04:20.553Z,14.05
2022-11-29T10:07:00.316Z,13.25
2022-11-29T10:09:39.985Z,12.77
2022-11-29T10:12:18.547Z,12.77
2022-11-29T10:14:56.469Z,13.70
2022-11-29T10:17:36.052Z,13.98
2022-11-29T10:20:15.925Z,13.23
2022-11-29T10:22:55.811Z,14.45
2022-11-29T10:25:34.264Z,13.43
2022-11-29T10:28:12.727Z,12.68
2022-11-29T10:30:46.234Z,14.82
2022-11-29T10:33:22.349Z,14.30
2022-11-29T10:35:58.166Z,16.48
2022-11-29T10:38:31.929Z,14.65
2022-11-29T10:41:12.237Z,16.35
2022-11-29T10:43:45.403Z,16.15
2022-11-29T10:46:29.885Z,15.35
2022-11-29T10:49:05.709Z,15.07
2022-11-29T10:51:39.166Z,15.63
2022-11-29T10:54:30.233Z,14.85
2022-11-29T10:57:13.851Z,15.52
2022-11-29T11:00:00.802Z,16.02
2022-11-29T11:02:34.541Z,16.58
2022-11-29T11:05:18.835Z,15.27
2022-11-29T11:07:58.610Z,16.00
2022-11-29T11:10:32.292Z,16.77
2022-11-29T11:13:08.347Z,15.48
2022-11-29T11:15:41.328Z,13.52
2022-11-29T11:20:58.234Z,16.02
2022-11-29T11:23:32.649Z,16.50
2022-11-29T11:26:11.363Z,16.42
2022-11-29T11:28:52.270Z,15.48
2022-11-29T11:31:34.390Z,15.48
2022-11-29T11:34:26.907Z,15.73
2022-11-29T11:37:19.761Z,16.37
2022-11-29T11:39:55.938Z,13.85
2022-11-29T11:42:40.386Z,15.73
2022-11-29T11:45:33.946Z,13.82
2022-11-29T11:48:14.492Z,14.18
2022-11-29T11:50:52.975Z,14.73
2022-11-29T11:53:29.041Z,14.30
2022-11-29T11:56:03.743Z,15.70
2022-11-29T11:58:40.492Z,16.00
2022-11-29T12:01:27.266Z,20.77
2022-11-29T12:04:05.441Z,21.90
2022-11-29T12:06:46.210Z,23.52
2022-11-29T12:09:28.999Z,27.23
2022-11-29T12:12:11.926Z,26.85
2022-11-29T12:14:55.637Z,24.23
2022-11-29T12:17:36.207Z,24.45
2022-11-29T12:20:23.688Z,21.50
2022-11-29T12:23:10.122Z,19.77
2022-11-29T12:25:49.723Z,22.15
2022-11-29T12:28:26.112Z,23.77
2022-11-29T12:31:08.819Z,22.75
2022-11-29T12:33:50.959Z,24.35
2022-11-29T12:36:37.848Z,26.92
2022-11-29T12:39:25.401Z,31.58
2022-11-29T12:42:07.188Z,33.03
2022-11-29T12:44:47.700Z,29.13
2022-11-29T12:47:37.704Z,30.00
2022-11-29T12:50:27.441Z,28.83
2022-11-29T12:53:15.449Z,26.48
2022-11-29T12:55:55.685Z,22.08
2022-11-29T12:58:39.056Z,20.70
2022-11-29T13:01:25.469Z,22.95
2022-11-29T13:04:05.138Z,20.77
2022-11-29T13:06:49.058Z,20.60
2022-11-29T13:09:49.298Z,21.45
2022-11-29T13:12:29.408Z,19.92
2022-11-29T13:15:06.333Z,19.83
2022-11-29T13:17:46.808Z,21.45
2022-11-29T13:20:32.176Z,18.83
2022-11-29T13:23:20.762Z,17.10
2022-11-29T13:25:58.224Z,18.13
2022-11-29T13:28:34.867Z,18.65
2022-11-29T13:31:15.604Z,18.67
2022-11-29T13:34:08.793Z,17.88
2022-11-29T13:36:51.043Z,19.70
2022-11-29T13:39:36.095Z,17.50
2022-11-29T13:42:17.277Z,18.88
2022-11-29T13:44:57.676Z,18.17
2022-11-29T13:47:30.570Z,16.38
2022-11-29T13:50:05.671Z,16.27
2022-11-29T13:52:41.248Z,13.82
2022-11-29T13:55:29.164Z,15.63
2022-11-29T13:58:22.226Z,14.32
2022-11-29T14:01:00.214Z,14.27
2022-11-29T14:03:37.128Z,14.52
2022-11-29T14:06:21.120Z,15.27
2022-11-29T14:09:28.307Z,15.68
2022-11-29T14:12:20.080Z,14.18
2022-11-29T14:14:57.867Z,14.13
2022-11-29T14:17:37.140Z,15.30
2022-11-29T14:20:58.267Z,13.15
2022-11-29T14:23:50.079Z,11.93
2022-11-29T14:26:32.398Z,12.60
2022-11-29T14:29:48.131Z,13.57
2022-11-29T14:32:23.691Z,11.32
2022-11-29T14:35:03.463Z,10.63
2022-11-29T14:37:53.664Z,10.90
2022-11-29T14:40:37.005Z,11.65
2022-11-29T14:43:21.951Z,12.05
2022-11-29T14:46:24.711Z,11.00
2022-11-29T14:49:04.084Z,10.30
2022-11-29T14:51:37.516Z,10.93
2022-11-29T14:54:18.354Z,10.60
2022-11-29T14:56:51.308Z,10.75
2022-11-29T15:02:35.970Z,10.65
2022-11-29T15:05:17.210Z,9.63
2022-11-29T15:07:57.882Z,11.27
2022-11-29T15:10:34.698Z,11.20
2022-11-29T15:13:10.829Z,11.75
2022-11-29T15:16:04.285Z,12.48
2022-11-29T15:19:17.686Z,10.77
2022-11-29T15:21:59.183Z,10.18
2022-11-29T15:24:51.149Z,11.63
2022-11-29T15:27:27.198Z,9.75
2022-11-29T15:30:10.098Z,10.48
2022-11-29T15:32:45.682Z,9.55
2022-11-29T15:35:21.049Z,9.00
2022-11-29T15:38:00.180Z,8.90
2022-11-29T15:40:43.344Z,8.05
2022-11-29T15:43:28.656Z,8.20
2022-11-29T15:46:02.242Z,9.23
2022-11-29T15:48:35.911Z,7.85
2022-11-29T15:51:30.422Z,7.82
2022-11-29T15:54:23.444Z,7.43
2022-11-29T15:57:03.955Z,8.32
2022-11-29T15:59:49.209Z,8.70
2022-11-29T16:02:28.061Z,6.88
2022-11-29T16:05:12.719Z,6.82
2022-11-29T16:07:51.094Z,6.47
2022-11-29T16:10:35.198Z,6.65
2022-11-29T16:13:37.173Z,6.30
2022-11-29T16:16:18.021Z,6.72
2022-11-29T16:18:52.365Z,6.75
2022-11-29T16:21:33.583Z,5.93
2022-11-29T16:24:23.421Z,6.10
2022-11-29T16:27:02.300Z,6.35
2022-11-29T16:29:45.153Z,5.45
2022-11-29T16:32:27.679Z,5.85
2022-11-29T16:35:08.412Z,6.05
2022-11-29T16:38:10.704Z,6.07
2022-11-29T16:41:04.863Z,5.60
2022-11-29T16:43:58.336Z,5.57
2022-11-29T16:46:40.853Z,5.93
2022-11-29T16:49:33.875Z,5.53
2022-11-29T16:52:43.421Z,5.80
2022-11-29T16:55:20.422Z,5.40
2022-11-29T16:57:57.145Z,5.20
2022-11-29T17:00:34.488Z,5.78
2022-11-29T17:03:07.669Z,6.10
2022-11-29T17:05:51.655Z,5.70
2022-11-29T17:08:25.850Z,5.43
2022-11-29T17:10:59.249Z,5.38
2022-11-29T17:13:34.799Z,6.07
2022-11-29T17:16:44.014Z,5.00
2022-11-29T17:19:24.031Z,6.05
2022-11-29T17:21:57.126Z,5.75
2022-11-29T17:27:05.289Z,5.70
2022-11-29T17:29:42.238Z,5.60
2022-11-29T17:32:26.458Z,6.13
2022-11-29T17:35:00.107Z,6.03
2022-11-29T17:37:33.686Z,5.88
2022-11-29T17:40:08.015Z,5.72
2022-11-29T17:42:41.284Z,5.93
2022-11-29T17:45:15.878Z,6.10
2022-11-29T17:47:51.620Z,5.63
2022-11-29T17:50:24.587Z,5.57
2022-11-29T17:55:30.401Z,5.55
2022-11-29T18:00:37.621Z,8.48
2022-11-29T18:03:10.951Z,12.98
2022-11-29T18:05:49.570Z,11.27
2022-11-29T18:08:22.891Z,10.13
2022-11-29T18:11:05.452Z,9.77
2022-11-29T18:13:38.888Z,8.68
2022-11-29T18:16:14.769Z,10.10
2022-11-29T18:18:48.308Z,9.65
2022-11-29T18:21:21.345Z,10.05
2022-11-29T18:23:55.099Z,9.48
2022-11-29T18:26:30.524Z,9.30
2022-11-29T18:29:03.687Z,9.93
2022-11-29T18:31:41.136Z,8.48
2022-11-29T18:34:15.525Z,10.75
2022-11-29T18:36:49.692Z,9.80
2022-11-29T18:39:27.201Z,10.48
2022-11-29T18:42:01.188Z,9.68
2022-11-29T18:44:34.639Z,9.75
2022-11-29T18:47:11.084Z,9.05
2022-11-29T18:49:44.428Z,8.63
2022-11-29T18:52:17.360Z,9.30
2022-11-29T18:54:52.033Z,9.68
2022-11-29T18:57:25.223Z,9.68
2022-11-29T18:59:58.637Z,9.73
2022-11-29T19:02:33.132Z,9.40
2022-11-29T19:05:06.650Z,8.90
2022-11-29T19:07:39.890Z,9.02
2022-11-29T19:10:13.961Z,9.80
2022-11-29T19:12:47.351Z,9.48
2022-11-29T19:15:20.689Z,8.93
2022-11-29T19:17:56.004Z,8.55
2022-11-29T19:20:29.216Z,8.68
2022-11-29T19:23:02.369Z,8.02
2022-11-29T19:25:36.630Z,9.00
2022-11-29T19:28:14.253Z,7.75
2022-11-29T19:30:56.179Z,8.13
2022-11-29T19:33:30.709Z,8.57
2022-11-29T19:36:08.645Z,8.30
2022-11-29T19:38:42.003Z,9.25
2022-11-29T19:41:16.725Z,7.78
2022-11-29T19:43:50.166Z,8.20
2022-11-29T19:46:25.161Z,8.98
2022-11-29T19:49:00.925Z,9.95
2022-11-29T19:51:34.524Z,8.65
2022-11-29T19:54:10.651Z,9.48
2022-11-29T19:56:50.825Z,8.90
2022-11-29T19:59:31.499Z,8.50
2022-11-29T20:02:08.670Z,9.20
2022-11-29T20:04:43.616Z,8.88
2022-11-29T20:07:17.372Z,8.50
2022-11-29T20:09:50.800Z,8.57
2022-11-29T20:15:01.127Z,8.82
2022-11-29T20:17:34.640Z,9.45
2022-11-29T20:20:11.525Z,9.32
2022-11-29T20:22:46.411Z,9.10
2022-11-29T20:25:24.820Z,8.43
2022-11-29T20:27:58.353Z,8.95
2022-11-29T20:34:53.741Z,8.37
2022-11-29T20:37:52.279Z,9.30
2022-11-29T20:40:33.397Z,9.40
2022-11-29T20:43:17.432Z,8.75
2022-11-29T20:45:51.174Z,10.85
2022-11-29T20:48:24.664Z,8.63
2022-11-29T20:51:03.591Z,10.40
2022-11-29T20:53:42.688Z,8.63
2022-11-29T20:56:15.944Z,10.07
2022-11-29T20:58:48.929Z,9.90
2022-11-29T21:01:22.751Z,9.93
2022-11-29T21:03:59.165Z,8.85
2022-11-29T21:06:34.570Z,9.02
2022-11-29T21:09:09.319Z,9.75
2022-11-29T21:11:45.880Z,9.52
2022-11-29T21:14:19.572Z,8.77
2022-11-29T21:16:53.742Z,9.45
2022-11-29T21:19:28.136Z,9.20
2022-11-29T21:22:09.469Z,9.27
2022-11-29T21:24:51.679Z,9.65
2022-11-29T21:27:30.097Z,9.30
2022-11-29T21:30:06.555Z,8.73
2022-11-29T21:32:40.187Z,8.55
2022-11-29T21:35:13.175Z,9.07
2022-11-29T21:37:46.409Z,8.80
2022-11-29T21:40:21.097Z,8.77
2022-11-29T21:42:54.478Z,9.25
2022-11-29T21:45:27.367Z,8.70
2022-11-29T21:50:33.223Z,10.02
2022-11-29T21:53:06.317Z,9.05
2022-11-29T21:58:13.301Z,9.50
2022-11-29T22:00:46.141Z,8.30
2022-11-29T22:05:52.096Z,9.93
2022-11-29T22:08:24.834Z,9.07
2022-11-29T22:11:03.621Z,8.50
2022-11-29T22:13:36.776Z,9.18
2022-11-29T22:16:11.430Z,8.82
2022-11-29T22:18:44.827Z,9.25
2022-11-29T22:21:17.724Z,8.88
2022-11-29T22:26:24.880Z,8.87
2022-11-29T22:28:58.224Z,8.68
2022-11-29T22:31:31.452Z,9.10
2022-11-29T22:34:04.439Z,9.23
2022-11-29T22:36:38.827Z,9.23
2022-11-29T22:39:12.157Z,7.60
2022-11-29T22:41:52.296Z,9.30
2022-11-29T22:44:26.974Z,9.10
2022-11-29T22:49:33.548Z,8.57
2022-11-29T22:52:06.652Z,8.50
2022-11-29T22:54:40.294Z,9.45
2022-11-29T22:57:14.528Z,9.07
2022-11-29T22:59:48.059Z,8.43
2022-11-29T23:02:21.128Z,9.35
2022-11-29T23:04:54.252Z,9.13
2022-11-29T23:07:27.304Z,8.68
2022-11-29T23:10:00.695Z,8.93
2022-11-29T23:12:35.472Z,9.27
2022-11-29T23:15:08.754Z,8.68
2022-11-29T23:17:41.991Z,8.95
2022-11-29T23:20:15.230Z,9.52
2022-11-29T23:22:48.469Z,8.77
2022-11-29T23:25:24.087Z,9.98
2022-11-29T23:27:58.409Z,8.23
2022-11-29T23:30:31.760Z,9.07
2022-11-29T23:33:04.669Z,8.00
2022-11-29T23:38:11.370Z,8.38
2022-11-29T23:40:45.938Z,8.30
2022-11-29T23:43:21.701Z,8.48
2022-11-29T23:45:54.827Z,8.13
2022-11-29T23:48:28.006Z,8.50
2022-11-29T23:51:00.991Z,8.07
2022-11-29T23:56:09.131Z,7.87
2022-11-29T23:58:43.781Z,7.32
